sensor_id;sensor_type;location;lat;lon;timestamp;pressure;altitude;pressure_sealevel;temperature;humidity
52719;BME280;38616;42.140;24.760;2023-04-08T14:46:33;99705.44;;;14.91;45.09
52719;BME280;38616;42.140;24.760;2023-04-08T14:48:59;99713.63;;;15.05;44.44
52719;BME280;38616;42.140;24.760;2023-04-08T14:51:25;99713.34;;;14.93;44.18
52719;BME280;38616;42.140;24.760;2023-04-08T14:53:50;99709.91;;;14.87;43.63
52719;BME280;38616;42.140;24.760;2023-04-08T14:56:15;99710.13;;;14.77;42.46
52719;BME280;38616;42.140;24.760;2023-04-08T14:58:41;99707.91;;;14.79;41.97
52719;BME280;38616;42.140;24.760;2023-04-08T15:01:06;99707.19;;;14.87;41.16
52719;BME280;38616;42.140;24.760;2023-04-08T15:03:35;99712.66;;;14.87;40.87
52719;BME280;38616;42.140;24.760;2023-04-08T15:06:00;99717.19;;;14.92;40.23
52719;BME280;38616;42.140;24.760;2023-04-08T15:08:29;99710.19;;;15.00;40.61
52719;BME280;38616;42.140;24.760;2023-04-08T15:10:54;99713.28;;;15.07;40.02
52719;BME280;38616;42.140;24.760;2023-04-08T15:13:21;99709.81;;;14.92;40.73
52719;BME280;38616;42.140;24.760;2023-04-08T15:15:47;99710.41;;;14.89;40.84
52719;BME280;38616;42.140;24.760;2023-04-08T15:18:14;99713.66;;;14.91;40.99
52719;BME280;38616;42.140;24.760;2023-04-08T15:20:40;99715.47;;;14.96;41.22
52719;BME280;38616;42.140;24.760;2023-04-08T15:23:06;99715.50;;;14.82;41.53
52719;BME280;38616;42.140;24.760;2023-04-08T15:25:32;99719.00;;;14.69;41.32
52719;BME280;38616;42.140;24.760;2023-04-08T15:27:57;99710.09;;;14.63;42.09
52719;BME280;38616;42.140;24.760;2023-04-08T15:30:22;99712.63;;;14.73;41.78
52719;BME280;38616;42.140;24.760;2023-04-08T15:32:50;99716.09;;;14.79;41.79
52719;BME280;38616;42.140;24.760;2023-04-08T15:35:16;99703.94;;;14.71;42.18
52719;BME280;38616;42.140;24.760;2023-04-08T15:37:41;99714.06;;;14.57;42.31
52719;BME280;38616;42.140;24.760;2023-04-08T15:40:07;99715.59;;;14.77;41.90
52719;BME280;38616;42.140;24.760;2023-04-08T15:42:33;99712.53;;;14.92;41.73
52719;BME280;38616;42.140;24.760;2023-04-08T15:44:59;99717.63;;;14.85;41.60
52719;BME280;38616;42.140;24.760;2023-04-08T15:47:25;99721.25;;;14.67;42.21
52719;BME280;38616;42.140;24.760;2023-04-08T15:49:53;99718.31;;;14.77;42.21
52719;BME280;38616;42.140;24.760;2023-04-08T15:52:20;99710.41;;;14.75;42.69
52719;BME280;38616;42.140;24.760;2023-04-08T15:54:45;99713.38;;;14.79;42.32
52719;BME280;38616;42.140;24.760;2023-04-08T15:57:11;99710.31;;;14.81;42.26
52719;BME280;38616;42.140;24.760;2023-04-08T15:59:36;99708.69;;;14.66;42.89
52719;BME280;38616;42.140;24.760;2023-04-08T16:02:02;99713.25;;;14.70;42.44
52719;BME280;38616;42.140;24.760;2023-04-08T16:04:27;99713.25;;;14.56;43.10
52719;BME280;38616;42.140;24.760;2023-04-08T16:06:53;99712.03;;;14.62;43.04
52719;BME280;38616;42.140;24.760;2023-04-08T16:09:19;99713.47;;;14.74;42.56
52719;BME280;38616;42.140;24.760;2023-04-08T16:11:49;99719.53;;;14.57;43.58
52719;BME280;38616;42.140;24.760;2023-04-08T16:14:15;99713.44;;;14.60;43.43
52719;BME280;38616;42.140;24.760;2023-04-08T16:16:40;99721.63;;;14.60;43.57
52719;BME280;38616;42.140;24.760;2023-04-08T16:19:06;99714.66;;;14.68;43.49
52719;BME280;38616;42.140;24.760;2023-04-08T16:21:32;99710.72;;;14.74;43.35
52719;BME280;38616;42.140;24.760;2023-04-08T16:24:00;99707.97;;;14.60;43.72
52719;BME280;38616;42.140;24.760;2023-04-08T16:26:25;99711.44;;;14.52;43.94
52719;BME280;38616;42.140;24.760;2023-04-08T16:28:51;99707.56;;;14.67;43.74
52719;BME280;38616;42.140;24.760;2023-04-08T16:31:17;99699.47;;;14.61;43.51
52719;BME280;38616;42.140;24.760;2023-04-08T16:33:43;99705.56;;;14.72;43.67
52719;BME280;38616;42.140;24.760;2023-04-08T16:36:08;99711.34;;;14.71;43.61
52719;BME280;38616;42.140;24.760;2023-04-08T16:38:34;99709.72;;;14.70;43.65
52719;BME280;38616;42.140;24.760;2023-04-08T16:41:00;99716.91;;;14.52;43.73
52719;BME280;38616;42.140;24.760;2023-04-08T16:43:25;99718.91;;;14.46;43.81
52719;BME280;38616;42.140;24.760;2023-04-08T16:45:51;99721.53;;;14.65;43.18
52719;BME280;38616;42.140;24.760;2023-04-08T16:48:17;99721.25;;;14.53;43.52
52719;BME280;38616;42.140;24.760;2023-04-08T16:50:43;99729.22;;;14.49;43.25
52719;BME280;38616;42.140;24.760;2023-04-08T16:53:08;99724.78;;;14.53;43.32
52719;BME280;38616;42.140;24.760;2023-04-08T16:55:37;99717.09;;;14.41;45.47
52719;BME280;38616;42.140;24.760;2023-04-08T16:58:03;99720.66;;;14.56;45.78
52719;BME280;38616;42.140;24.760;2023-04-08T17:00:29;99725.97;;;14.61;43.75
52719;BME280;38616;42.140;24.760;2023-04-08T17:02:55;99723.75;;;14.63;45.58
52719;BME280;38616;42.140;24.760;2023-04-08T17:05:22;99731.28;;;14.43;44.05
52719;BME280;38616;42.140;24.760;2023-04-08T17:07:48;99732.09;;;12.63;46.46
52719;BME280;38616;42.140;24.760;2023-04-08T17:10:14;99734.47;;;11.51;49.65
52719;BME280;38616;42.140;24.760;2023-04-08T17:12:40;99748.25;;;11.20;50.84
52719;BME280;38616;42.140;24.760;2023-04-08T17:15:06;99752.56;;;11.27;53.19
52719;BME280;38616;42.140;24.760;2023-04-08T17:17:32;99747.78;;;12.22;49.91
52719;BME280;38616;42.140;24.760;2023-04-08T17:19:57;99746.44;;;12.93;48.08
52719;BME280;38616;42.140;24.760;2023-04-08T17:22:24;99755.34;;;13.42;46.60
52719;BME280;38616;42.140;24.760;2023-04-08T17:24:49;99756.94;;;13.81;45.63
52719;BME280;38616;42.140;24.760;2023-04-08T17:27:15;99752.13;;;13.92;45.14
52719;BME280;38616;42.140;24.760;2023-04-08T17:29:40;99749.34;;;14.11;45.20
52719;BME280;38616;42.140;24.760;2023-04-08T17:32:05;99764.50;;;14.03;44.54
52719;BME280;38616;42.140;24.760;2023-04-08T17:34:34;99763.16;;;14.01;44.82
52719;BME280;38616;42.140;24.760;2023-04-08T17:36:59;99761.69;;;14.09;44.65
52719;BME280;38616;42.140;24.760;2023-04-08T17:39:24;99774.13;;;14.15;44.57
52719;BME280;38616;42.140;24.760;2023-04-08T17:41:50;99778.28;;;14.26;44.26
52719;BME280;38616;42.140;24.760;2023-04-08T17:44:15;99781.66;;;13.90;44.85
52719;BME280;38616;42.140;24.760;2023-04-08T17:46:41;99795.34;;;11.61;49.96
52719;BME280;38616;42.140;24.760;2023-04-08T17:49:06;99793.63;;;11.30;51.59
52719;BME280;38616;42.140;24.760;2023-04-08T17:51:35;99796.50;;;11.49;52.44
52719;BME280;38616;42.140;24.760;2023-04-08T17:54:00;99792.91;;;12.58;49.83
52719;BME280;38616;42.140;24.760;2023-04-08T17:56:26;99796.19;;;13.04;48.57
52719;BME280;38616;42.140;24.760;2023-04-08T17:58:52;99804.72;;;13.21;48.60
52719;BME280;38616;42.140;24.760;2023-04-08T18:01:17;99811.84;;;13.17;48.36
52719;BME280;38616;42.140;24.760;2023-04-08T18:03:43;99808.91;;;13.13;48.65
52719;BME280;38616;42.140;24.760;2023-04-08T18:06:09;99816.00;;;13.34;48.53
52719;BME280;38616;42.140;24.760;2023-04-08T18:08:34;99813.72;;;13.22;48.93
52719;BME280;38616;42.140;24.760;2023-04-08T18:13:38;99825.25;;;13.38;49.29
52719;BME280;38616;42.140;24.760;2023-04-08T18:16:03;99832.88;;;13.17;50.20
52719;BME280;38616;42.140;24.760;2023-04-08T18:18:31;99826.16;;;13.28;50.33
52719;BME280;38616;42.140;24.760;2023-04-08T18:20:57;99837.25;;;12.05;52.51
52719;BME280;38616;42.140;24.760;2023-04-08T18:23:26;99847.63;;;10.87;56.55
52719;BME280;38616;42.140;24.760;2023-04-08T18:25:52;99842.19;;;10.92;57.41
52719;BME280;38616;42.140;24.760;2023-04-08T18:28:17;99841.03;;;11.69;54.77
52719;BME280;38616;42.140;24.760;2023-04-08T18:30:43;99840.19;;;12.14;53.33
52719;BME280;38616;42.140;24.760;2023-04-08T18:33:08;99847.16;;;12.25;52.61
52719;BME280;38616;42.140;24.760;2023-04-08T18:35:33;99850.09;;;12.34;52.75
52719;BME280;38616;42.140;24.760;2023-04-08T18:37:59;99854.56;;;12.78;51.89
52719;BME280;38616;42.140;24.760;2023-04-08T18:40:24;99855.97;;;13.00;50.59
52719;BME280;38616;42.140;24.760;2023-04-08T18:42:50;99868.00;;;12.99;50.46
52719;BME280;38616;42.140;24.760;2023-04-08T18:45:15;99864.00;;;13.15;50.62
52719;BME280;38616;42.140;24.760;2023-04-08T18:47:41;99866.84;;;13.05;50.57
52719;BME280;38616;42.140;24.760;2023-04-08T18:50:06;99873.50;;;12.94;50.97
52719;BME280;38616;42.140;24.760;2023-04-08T18:52:32;99878.09;;;12.69;51.76
52719;BME280;38616;42.140;24.760;2023-04-08T18:54:58;99881.41;;;12.36;52.67
52719;BME280;38616;42.140;24.760;2023-04-08T18:57:26;99888.66;;;10.96;55.41
52719;BME280;38616;42.140;24.760;2023-04-08T18:59:52;99894.94;;;10.81;55.52
52719;BME280;38616;42.140;24.760;2023-04-08T19:02:17;99897.09;;;10.78;58.87
52719;BME280;38616;42.140;24.760;2023-04-08T19:04:43;99896.28;;;11.64;56.25
52719;BME280;38616;42.140;24.760;2023-04-08T19:07:08;99896.28;;;12.15;54.27
52719;BME280;38616;42.140;24.760;2023-04-08T19:09:34;99894.63;;;12.14;53.97
52719;BME280;38616;42.140;24.760;2023-04-08T19:11:59;99898.34;;;12.28;53.98
52719;BME280;38616;42.140;24.760;2023-04-08T19:14:26;99893.09;;;12.37;53.89
52719;BME280;38616;42.140;24.760;2023-04-08T19:16:51;99895.47;;;12.14;54.56
52719;BME280;38616;42.140;24.760;2023-04-08T19:19:17;99897.84;;;12.55;53.44
52719;BME280;38616;42.140;24.760;2023-04-08T19:21:42;99899.44;;;12.62;53.35
52719;BME280;38616;42.140;24.760;2023-04-08T19:24:07;99906.84;;;12.85;52.68
52719;BME280;38616;42.140;24.760;2023-04-08T19:26:33;99905.94;;;12.66;53.62
52719;BME280;38616;42.140;24.760;2023-04-08T19:29:00;99913.66;;;12.53;53.63
52719;BME280;38616;42.140;24.760;2023-04-08T19:31:26;99915.91;;;11.56;55.79
52719;BME280;38616;42.140;24.760;2023-04-08T19:33:51;99918.81;;;10.11;60.21
52719;BME280;38616;42.140;24.760;2023-04-08T19:36:16;99924.53;;;10.15;62.19
52719;BME280;38616;42.140;24.760;2023-04-08T19:38:42;99917.19;;;11.03;59.85
52719;BME280;38616;42.140;24.760;2023-04-08T19:41:07;99918.63;;;11.51;58.40
52719;BME280;38616;42.140;24.760;2023-04-08T19:43:33;99916.94;;;11.65;57.83
52719;BME280;38616;42.140;24.760;2023-04-08T19:45:58;99913.41;;;11.70;58.21
52719;BME280;38616;42.140;24.760;2023-04-08T19:48:24;99915.47;;;11.89;57.52
52719;BME280;38616;42.140;24.760;2023-04-08T19:50:50;99920.19;;;11.73;58.54
52719;BME280;38616;42.140;24.760;2023-04-08T19:53:15;99922.28;;;11.86;58.11
52719;BME280;38616;42.140;24.760;2023-04-08T19:55:41;99925.63;;;12.23;57.31
52719;BME280;38616;42.140;24.760;2023-04-08T19:58:07;99920.50;;;12.16;57.46
52719;BME280;38616;42.140;24.760;2023-04-08T20:00:32;99915.34;;;12.15;57.50
52719;BME280;38616;42.140;24.760;2023-04-08T20:02:57;99926.94;;;12.31;57.07
52719;BME280;38616;42.140;24.760;2023-04-08T20:05:23;99928.00;;;12.35;57.01
52719;BME280;38616;42.140;24.760;2023-04-08T20:07:48;99935.97;;;10.63;60.19
52719;BME280;38616;42.140;24.760;2023-04-08T20:10:15;99940.03;;;10.35;60.10
52719;BME280;38616;42.140;24.760;2023-04-08T20:12:40;99943.88;;;10.55;63.79
52719;BME280;38616;42.140;24.760;2023-04-08T20:15:07;99947.53;;;11.47;60.92
52719;BME280;38616;42.140;24.760;2023-04-08T20:17:33;99937.00;;;11.85;59.47
52719;BME280;38616;42.140;24.760;2023-04-08T20:19:58;99937.34;;;12.23;58.03
52719;BME280;38616;42.140;24.760;2023-04-08T20:22:24;99936.75;;;12.32;57.55
52719;BME280;38616;42.140;24.760;2023-04-08T20:24:49;99945.06;;;12.11;58.26
52719;BME280;38616;42.140;24.760;2023-04-08T20:27:15;99944.25;;;12.05;58.41
52719;BME280;38616;42.140;24.760;2023-04-08T20:29:43;99948.75;;;11.75;59.06
52719;BME280;38616;42.140;24.760;2023-04-08T20:32:08;99953.47;;;11.49;60.18
52719;BME280;38616;42.140;24.760;2023-04-08T20:34:34;99948.53;;;11.61;60.17
52719;BME280;38616;42.140;24.760;2023-04-08T20:37:00;99945.22;;;11.70;59.50
52719;BME280;38616;42.140;24.760;2023-04-08T20:39:27;99955.31;;;11.69;59.77
52719;BME280;38616;42.140;24.760;2023-04-08T20:41:56;99949.78;;;11.90;59.40
52719;BME280;38616;42.140;24.760;2023-04-08T20:46:59;99951.31;;;12.06;58.92
52719;BME280;38616;42.140;24.760;2023-04-08T20:49:24;99949.13;;;12.08;58.82
52719;BME280;38616;42.140;24.760;2023-04-08T20:51:49;99960.25;;;12.17;58.66
52719;BME280;38616;42.140;24.760;2023-04-08T20:54:15;99954.13;;;11.91;59.29
52719;BME280;38616;42.140;24.760;2023-04-08T20:56:40;99953.53;;;11.94;59.38
52719;BME280;38616;42.140;24.760;2023-04-08T20:59:06;99948.16;;;11.89;59.51
52719;BME280;38616;42.140;24.760;2023-04-08T21:01:32;99959.84;;;11.89;59.29
52719;BME280;38616;42.140;24.760;2023-04-08T21:03:57;99953.38;;;11.75;60.01
52719;BME280;38616;42.140;24.760;2023-04-08T21:06:23;99955.88;;;11.66;60.24
52719;BME280;38616;42.140;24.760;2023-04-08T21:08:49;99952.19;;;11.26;61.76
52719;BME280;38616;42.140;24.760;2023-04-08T21:11:15;99958.41;;;11.47;61.14
52719;BME280;38616;42.140;24.760;2023-04-08T21:13:40;99952.19;;;11.31;61.57
52719;BME280;38616;42.140;24.760;2023-04-08T21:16:06;99959.50;;;11.46;61.21
52719;BME280;38616;42.140;24.760;2023-04-08T21:18:32;99959.00;;;11.33;61.64
52719;BME280;38616;42.140;24.760;2023-04-08T21:20:57;99961.03;;;11.62;60.87
52719;BME280;38616;42.140;24.760;2023-04-08T21:23:23;99957.53;;;11.57;61.07
52719;BME280;38616;42.140;24.760;2023-04-08T21:25:51;99953.66;;;11.73;60.48
52719;BME280;38616;42.140;24.760;2023-04-08T21:28:16;99958.53;;;11.81;60.07
52719;BME280;38616;42.140;24.760;2023-04-08T21:30:42;99957.13;;;11.84;59.79
52719;BME280;38616;42.140;24.760;2023-04-08T21:33:07;99955.56;;;11.67;60.47
52719;BME280;38616;42.140;24.760;2023-04-08T21:35:33;99957.69;;;11.86;60.30
52719;BME280;38616;42.140;24.760;2023-04-08T21:37:58;99959.25;;;11.97;59.70
52719;BME280;38616;42.140;24.760;2023-04-08T21:40:24;99959.84;;;11.89;59.67
52719;BME280;38616;42.140;24.760;2023-04-08T21:42:50;99966.38;;;11.88;59.99
52719;BME280;38616;42.140;24.760;2023-04-08T21:45:15;99954.91;;;12.02;59.78
52719;BME280;38616;42.140;24.760;2023-04-08T21:47:41;99957.75;;;11.71;60.52
52719;BME280;38616;42.140;24.760;2023-04-08T21:50:07;99962.59;;;11.84;60.16
52719;BME280;38616;42.140;24.760;2023-04-08T21:52:33;99955.16;;;12.05;59.72
52719;BME280;38616;42.140;24.760;2023-04-08T21:54:58;99961.53;;;11.75;60.40
52719;BME280;38616;42.140;24.760;2023-04-08T21:57:24;99951.69;;;11.84;59.90
52719;BME280;38616;42.140;24.760;2023-04-08T21:59:49;99957.69;;;11.86;59.96
52719;BME280;38616;42.140;24.760;2023-04-08T22:02:15;99955.31;;;11.69;60.25
52719;BME280;38616;42.140;24.760;2023-04-08T22:04:41;99961.88;;;11.63;60.68
52719;BME280;38616;42.140;24.760;2023-04-08T22:07:06;99958.25;;;11.78;60.23
52719;BME280;38616;42.140;24.760;2023-04-08T22:09:32;99957.75;;;11.71;60.79
52719;BME280;38616;42.140;24.760;2023-04-08T22:11:58;99961.53;;;11.75;60.70
52719;BME280;38616;42.140;24.760;2023-04-08T22:14:23;99970.00;;;11.68;60.84
52719;BME280;38616;42.140;24.760;2023-04-08T22:16:48;99961.53;;;11.75;60.57
52719;BME280;38616;42.140;24.760;2023-04-08T22:19:14;99958.03;;;11.69;60.78
52719;BME280;38616;42.140;24.760;2023-04-08T22:21:40;99960.53;;;11.55;60.89
52719;BME280;38616;42.140;24.760;2023-04-08T22:24:05;99958.69;;;11.40;61.56
52719;BME280;38616;42.140;24.760;2023-04-08T22:26:30;99960.06;;;11.37;61.49
52719;BME280;38616;42.140;24.760;2023-04-08T22:28:56;99962.78;;;11.37;61.62
52719;BME280;38616;42.140;24.760;2023-04-08T22:31:21;99967.69;;;11.35;61.64
52719;BME280;38616;42.140;24.760;2023-04-08T22:33:47;99973.66;;;11.37;61.58
52719;BME280;38616;42.140;24.760;2023-04-08T22:36:12;99969.00;;;11.43;61.46
52719;BME280;38616;42.140;24.760;2023-04-08T22:38:37;99973.38;;;11.39;62.11
52719;BME280;38616;42.140;24.760;2023-04-08T22:41:03;99976.34;;;11.48;61.72
52719;BME280;38616;42.140;24.760;2023-04-08T22:43:28;99975.84;;;11.30;61.64
52719;BME280;38616;42.140;24.760;2023-04-08T22:45:54;99973.13;;;11.30;62.32
52719;BME280;38616;42.140;24.760;2023-04-08T22:48:19;99982.38;;;11.34;62.07
52719;BME280;38616;42.140;24.760;2023-04-08T22:50:45;99980.44;;;11.45;61.89
52719;BME280;38616;42.140;24.760;2023-04-08T22:53:10;99981.19;;;11.56;61.60
52719;BME280;38616;42.140;24.760;2023-04-08T22:55:36;99981.81;;;11.43;61.88
52719;BME280;38616;42.140;24.760;2023-04-08T22:58:02;99977.72;;;11.45;62.00
52719;BME280;38616;42.140;24.760;2023-04-08T23:00:28;99978.47;;;11.56;61.41
52719;BME280;38616;42.140;24.760;2023-04-08T23:02:53;99982.91;;;11.42;61.75
52719;BME280;38616;42.140;24.760;2023-04-08T23:05:19;99982.59;;;11.48;61.67
52719;BME280;38616;42.140;24.760;2023-04-08T23:07:44;99992.94;;;11.51;61.62
52719;BME280;38616;42.140;24.760;2023-04-08T23:10:09;99979.63;;;11.45;62.12
52719;BME280;38616;42.140;24.760;2023-04-08T23:12:35;99983.69;;;11.47;61.66
52719;BME280;38616;42.140;24.760;2023-04-08T23:15:00;99975.03;;;11.30;62.11
52719;BME280;38616;42.140;24.760;2023-04-08T23:17:26;99982.06;;;11.41;62.05
52719;BME280;38616;42.140;24.760;2023-04-08T23:19:51;99981.28;;;11.35;61.84
52719;BME280;38616;42.140;24.760;2023-04-08T23:22:19;99976.94;;;11.34;62.02
52719;BME280;38616;42.140;24.760;2023-04-08T23:24:44;99980.75;;;11.33;62.01
52719;BME280;38616;42.140;24.760;2023-04-08T23:27:10;99974.81;;;11.00;62.52
52719;BME280;38616;42.140;24.760;2023-04-08T23:29:35;99976.44;;;11.12;62.75
52719;BME280;38616;42.140;24.760;2023-04-08T23:32:01;99975.31;;;11.23;62.16
52719;BME280;38616;42.140;24.760;2023-04-08T23:34:26;99970.69;;;11.13;62.12
52719;BME280;38616;42.140;24.760;2023-04-08T23:36:51;99970.75;;;10.98;62.57
52719;BME280;38616;42.140;24.760;2023-04-08T23:39:17;99968.56;;;11.00;62.44
52719;BME280;38616;42.140;24.760;2023-04-08T23:41:42;99980.00;;;10.97;62.74
52719;BME280;38616;42.140;24.760;2023-04-08T23:44:08;99971.56;;;10.77;63.12
52719;BME280;38616;42.140;24.760;2023-04-08T23:46:33;99975.38;;;10.76;63.19
52719;BME280;38616;42.140;24.760;2023-04-08T23:48:59;99973.72;;;10.70;63.04
52719;BME280;38616;42.140;24.760;2023-04-08T23:51:26;99972.66;;;10.76;63.22
52719;BME280;38616;42.140;24.760;2023-04-08T23:53:52;99972.09;;;10.79;62.90
52719;BME280;38616;42.140;24.760;2023-04-08T23:56:17;99976.75;;;10.74;62.90
52719;BME280;38616;42.140;24.760;2023-04-08T23:58:43;99975.38;;;10.66;62.80
